Terminal Aerodrome Forecast
Issued by NWS

Home | Current Version | Previous Version | Text Only | Print | Product List | Glossary On
Versions: 1 2 3 4 5 6 7 8 9 10 11 12
000
FTUS42 TJSJ 020544
TAFJPS
TAF
TJPS 020544Z 0206/0306 07006KT P6SM SCT050
     FM021500 15015G20KT P6SM FEW030
     FM022330 07007KT P6SM FEW030=

USA.gov is the U.S. government's official web portal to all federal, state and local government web resources and services.